Time;durP1;ratioP1;P1;durP2;ratioP2;P2;SDS_P1;SDS_P2;PMS_P1;PMS_P2;Temp;Humidity;BMP_temperature;BMP_pressure;BME280_temperature;BME280_humidity;BME280_pressure;Samples;Min_cycle;Max_cycle;Signal;HPM_P1;HPM_P2
2023/04/30 00:00:27;;;;;;;2.33;1.93;;;18.70;66.20;;;;;;5037597;28;20556;-46
2023/04/30 00:02:58;;;;;;;2.40;1.70;;;18.70;66.10;;;;;;5068229;28;20201;-46
2023/04/30 00:05:27;;;;;;;2.23;1.70;;;18.70;66.00;;;;;;5067855;28;20202;-48
2023/04/30 00:07:57;;;;;;;2.53;1.73;;;18.70;65.90;;;;;;5070017;28;20209;-46
2023/04/30 00:10:28;;;;;;;2.63;2.00;;;18.70;65.90;;;;;;5071319;28;20700;-46
2023/04/30 00:13:00;;;;;;;1.60;1.50;;;18.70;65.90;;;;;;5049290;28;20205;-47
2023/04/30 00:15:30;;;;;;;1.60;1.50;;;18.60;65.90;;;;;;5066657;28;20214;-46
2023/04/30 00:18:02;;;;;;;1.87;1.77;;;18.60;65.90;;;;;;5069870;28;20201;-48
2023/04/30 00:20:34;;;;;;;1.60;1.50;;;18.60;65.80;;;;;;5045354;28;20627;-48
2023/04/30 00:23:11;;;;;;;1.80;1.70;;;18.60;65.80;;;;;;5029083;28;20201;-48
2023/04/30 00:25:44;;;;;;;2.37;1.63;;;18.60;65.80;;;;;;5051254;28;20222;-47
2023/04/30 00:28:13;;;;;;;1.80;1.70;;;18.60;65.70;;;;;;5069827;28;20205;-49
2023/04/30 00:30:45;;;;;;;1.73;1.63;;;18.60;65.60;;;;;;5063359;28;20214;-48
2023/04/30 00:33:18;;;;;;;2.00;1.50;;;18.60;65.50;;;;;;5067779;28;20193;-48
2023/04/30 00:35:48;;;;;;;1.93;1.50;;;18.60;65.50;;;;;;5058474;28;20243;-48
2023/04/30 00:38:16;;;;;;;2.73;1.60;;;18.60;65.50;;;;;;5068162;28;20218;-49
2023/04/30 00:40:48;;;;;;;1.50;1.40;;;18.60;65.50;;;;;;5069886;28;20208;-48
2023/04/30 00:43:18;;;;;;;3.00;1.70;;;18.60;65.30;;;;;;5042935;28;20269;-48
2023/04/30 00:45:48;;;;;;;1.73;1.63;;;18.50;65.30;;;;;;5066019;28;20224;-48
2023/04/30 00:48:20;;;;;;;2.83;1.40;;;18.60;65.30;;;;;;5071342;28;20205;-48
2023/04/30 00:50:49;;;;;;;1.50;1.40;;;18.50;65.20;;;;;;5059505;28;20228;-48
2023/04/30 00:53:20;;;;;;;1.80;1.50;;;18.50;65.30;;;;;;5067415;28;20189;-46
2023/04/30 00:55:53;;;;;;;2.67;1.77;;;18.50;65.20;;;;;;5053407;28;20209;-46
2023/04/30 00:58:22;;;;;;;1.60;1.50;;;18.50;65.20;;;;;;5070842;28;20244;-47
2023/04/30 01:00:51;;;;;;;1.37;1.27;;;18.50;65.20;;;;;;5072483;28;20190;-46
2023/04/30 01:03:21;;;;;;;1.40;1.30;;;18.50;65.20;;;;;;5075051;28;20231;-48
2023/04/30 01:05:52;;;;;;;5.03;1.50;;;18.50;65.20;;;;;;5070278;28;20202;-48
2023/04/30 01:08:23;;;;;;;1.47;1.37;;;18.50;65.10;;;;;;5082057;28;20207;-48
2023/04/30 01:11:21;;;;;;;3.67;1.70;;;18.50;65.20;;;;;;5070430;28;20218;-48
2023/04/30 01:14:28;;;;;;;3.43;1.70;;;18.50;65.30;;;;;;5067011;28;20210;-48
2023/04/30 01:17:16;;;;;;;1.80;1.70;;;18.50;65.20;;;;;;5069317;28;20205;-48
2023/04/30 01:19:49;;;;;;;1.80;1.70;;;18.50;65.10;;;;;;5062828;28;20198;-48
2023/04/30 01:22:54;;;;;;;3.97;1.47;;;18.40;65.00;;;;;;5057449;28;20650;-48
2023/04/30 01:26:09;;;;;;;1.70;1.40;;;18.40;65.20;;;;;;5063984;28;20509;-48
2023/04/30 01:28:48;;;;;;;1.53;1.40;;;18.40;65.10;;;;;;5061176;28;20214;-48
2023/04/30 01:31:23;;;;;;;1.63;1.53;;;18.40;65.10;;;;;;5067374;28;20217;-48
2023/04/30 01:33:53;;;;;;;1.53;1.40;;;18.40;65.20;;;;;;5057011;28;20174;-48
2023/04/30 01:36:48;;;;;;;3.23;1.90;;;18.30;65.10;;;;;;5064780;28;20519;-48
2023/04/30 01:39:58;;;;;;;1.70;1.60;;;18.40;65.00;;;;;;5064455;28;20202;-48
2023/04/30 01:43:04;;;;;;;1.70;1.53;;;18.40;65.00;;;;;;5060534;28;20198;-48
2023/04/30 01:45:54;;;;;;;1.80;1.60;;;18.30;65.00;;;;;;5020027;28;20324;-49
2023/04/30 01:48:36;;;;;;;1.80;1.70;;;18.40;65.00;;;;;;5063047;28;20235;-48
2023/04/30 01:51:26;;;;;;;3.10;1.60;;;18.30;65.00;;;;;;5051905;28;20549;-48
2023/04/30 01:54:04;;;;;;;1.83;1.40;;;18.30;65.00;;;;;;5051917;28;20189;-48
2023/04/30 01:56:40;;;;;;;1.63;1.47;;;18.30;65.00;;;;;;5051603;28;20201;-48
2023/04/30 01:59:24;;;;;;;1.73;1.40;;;18.30;65.00;;;;;;5056098;28;20229;-48
2023/04/30 02:01:55;;;;;;;1.73;1.40;;;18.30;65.00;;;;;;5066035;28;20211;-46
2023/04/30 02:04:25;;;;;;;1.50;1.40;;;18.30;64.90;;;;;;5051692;28;20208;-48
2023/04/30 02:06:57;;;;;;;1.67;1.57;;;18.30;64.90;;;;;;5073870;28;20177;-48
2023/04/30 02:09:30;;;;;;;1.80;1.60;;;18.30;64.90;;;;;;5072914;28;20267;-48
2023/04/30 02:12:00;;;;;;;1.40;1.30;;;18.30;64.90;;;;;;5056459;28;20217;-48
2023/04/30 02:14:30;;;;;;;2.30;1.57;;;18.30;64.90;;;;;;5064547;28;20217;-48
2023/04/30 02:17:01;;;;;;;4.20;1.60;;;18.30;64.80;;;;;;5057764;28;20190;-46
2023/04/30 02:19:31;;;;;;;1.63;1.50;;;18.30;64.80;;;;;;5060485;28;20197;-48
2023/04/30 02:22:00;;;;;;;1.47;1.37;;;18.30;64.80;;;;;;5058963;28;20607;-46
2023/04/30 02:24:28;;;;;;;1.63;1.33;;;18.30;64.80;;;;;;5068548;28;20567;-46
2023/04/30 02:26:58;;;;;;;1.40;1.30;;;18.20;64.70;;;;;;5065641;28;20225;-46
2023/04/30 02:29:25;;;;;;;2.17;1.70;;;18.20;64.70;;;;;;5066406;28;20683;-46
2023/04/30 02:31:58;;;;;;;1.60;1.47;;;18.20;64.70;;;;;;5033769;28;20210;-47
2023/04/30 02:34:28;;;;;;;2.50;1.27;;;18.20;64.60;;;;;;5043290;28;20205;-46
2023/04/30 02:36:58;;;;;;;1.83;1.50;;;18.20;65.20;;;;;;5050469;28;20205;-48
2023/04/30 02:39:30;;;;;;;1.50;1.30;;;18.20;64.70;;;;;;5063652;28;20217;-46
2023/04/30 02:42:01;;;;;;;1.53;1.33;;;18.20;64.60;;;;;;5071690;28;20213;-47
2023/04/30 02:44:36;;;;;;;1.60;1.50;;;18.20;64.60;;;;;;5072910;28;20229;-49
2023/04/30 02:47:05;;;;;;;1.50;1.40;;;18.20;64.60;;;;;;5065549;28;20189;-48
2023/04/30 02:49:35;;;;;;;1.50;1.40;;;18.20;64.60;;;;;;5048808;28;20286;-48
2023/04/30 02:52:08;;;;;;;1.37;1.27;;;18.20;64.70;;;;;;5068361;28;20228;-46
2023/04/30 02:54:41;;;;;;;2.20;1.60;;;18.20;64.60;;;;;;5068387;28;20285;-46
2023/04/30 02:57:12;;;;;;;1.50;1.40;;;18.20;64.60;;;;;;5066071;28;20647;-46
2023/04/30 02:59:38;;;;;;;1.70;1.40;;;18.10;64.60;;;;;;5068737;28;20536;-48
2023/04/30 03:02:07;;;;;;;1.60;1.50;;;18.20;64.60;;;;;;5047726;28;20205;-47
2023/04/30 03:04:36;;;;;;;1.67;1.50;;;18.20;64.60;;;;;;5068501;28;20255;-46
2023/04/30 03:07:07;;;;;;;1.60;1.50;;;18.20;64.60;;;;;;5049461;28;20194;-46
2023/04/30 03:09:37;;;;;;;1.50;1.40;;;18.10;64.50;;;;;;5075897;28;20249;-46
2023/04/30 03:12:05;;;;;;;1.60;1.43;;;18.10;64.50;;;;;;5068437;28;20212;-46
2023/04/30 03:14:35;;;;;;;1.80;1.50;;;18.10;64.50;;;;;;5066205;28;20583;-46
2023/04/30 03:17:05;;;;;;;1.63;1.40;;;18.10;64.50;;;;;;5060144;28;20213;-46
2023/04/30 03:19:36;;;;;;;1.57;1.40;;;18.10;64.40;;;;;;5061816;28;20206;-46
2023/04/30 03:22:06;;;;;;;1.50;1.30;;;18.10;64.40;;;;;;5064036;28;20210;-46
2023/04/30 03:24:34;;;;;;;1.67;1.57;;;18.10;64.50;;;;;;5065314;28;20565;-46
2023/04/30 03:27:20;;;;;;;2.07;1.20;;;18.10;64.40;;;;;;5067421;28;20525;-48
2023/04/30 03:29:50;;;;;;;1.23;1.13;;;18.10;64.40;;;;;;5071958;28;20785;-48
2023/04/30 03:32:21;;;;;;;1.53;1.27;;;18.10;64.50;;;;;;5074040;28;20208;-48
2023/04/30 03:34:52;;;;;;;1.60;1.50;;;18.10;64.40;;;;;;5076207;28;20595;-46
2023/04/30 03:37:20;;;;;;;1.40;1.30;;;18.10;64.40;;;;;;5075184;28;20244;-46
2023/04/30 03:39:51;;;;;;;1.60;1.50;;;18.10;64.40;;;;;;5073116;28;20190;-48
2023/04/30 03:42:18;;;;;;;1.80;1.50;;;18.10;64.40;;;;;;5092333;28;20196;-46
2023/04/30 03:44:48;;;;;;;1.67;1.50;;;18.10;64.40;;;;;;5073079;28;20233;-47
2023/04/30 03:47:20;;;;;;;1.53;1.40;;;18.10;64.30;;;;;;5063751;28;20198;-48
2023/04/30 03:49:53;;;;;;;1.37;1.27;;;18.10;64.40;;;;;;5045084;28;20214;-48
2023/04/30 03:52:26;;;;;;;1.10;1.00;;;18.10;64.30;;;;;;5035007;28;20279;-48
2023/04/30 03:55:06;;;;;;;2.13;1.10;;;18.10;64.30;;;;;;5053470;28;20226;-48
2023/04/30 03:57:40;;;;;;;1.60;1.50;;;18.10;64.30;;;;;;5060022;28;20198;-48
2023/04/30 04:00:14;;;;;;;1.53;1.40;;;18.10;64.30;;;;;;5033133;28;20211;-48
2023/04/30 04:03:16;;;;;;;1.47;1.37;;;18.00;64.20;;;;;;5021299;28;20243;-47
2023/04/30 04:06:06;;;;;;;1.87;1.70;;;18.10;64.30;;;;;;5037055;28;20193;-46
2023/04/30 04:08:36;;;;;;;1.53;1.40;;;18.00;64.30;;;;;;5059937;28;20218;-46
2023/04/30 04:11:18;;;;;;;1.53;1.43;;;18.00;64.30;;;;;;5046845;28;20214;-46
2023/04/30 04:13:54;;;;;;;1.30;1.20;;;18.00;64.30;;;;;;5034754;28;20210;-47
2023/04/30 04:16:23;;;;;;;1.47;1.37;;;18.00;64.30;;;;;;5045137;28;20214;-47
2023/04/30 04:18:54;;;;;;;1.50;1.40;;;18.00;64.30;;;;;;5047319;28;20202;-46
2023/04/30 04:21:22;;;;;;;1.50;1.40;;;18.00;64.30;;;;;;5052206;28;20643;-47
2023/04/30 04:23:52;;;;;;;3.33;1.30;;;18.00;64.20;;;;;;5047759;28;20209;-46
2023/04/30 04:26:24;;;;;;;1.83;1.30;;;18.00;64.20;;;;;;5051476;28;20206;-46
2023/04/30 04:28:53;;;;;;;2.03;1.60;;;18.00;64.30;;;;;;5050928;28;20202;-46
2023/04/30 04:31:25;;;;;;;1.50;1.30;;;18.00;64.20;;;;;;5050835;28;20218;-46
2023/04/30 04:33:57;;;;;;;1.23;1.13;;;18.00;64.20;;;;;;5048612;28;20593;-46
2023/04/30 04:36:33;;;;;;;1.50;1.40;;;18.00;64.20;;;;;;5036107;28;20206;-46
2023/04/30 04:39:05;;;;;;;1.80;1.37;;;18.00;64.20;;;;;;5065511;28;20189;-46
2023/04/30 04:41:35;;;;;;;1.33;1.23;;;18.00;64.20;;;;;;5037200;28;20198;-47
2023/04/30 04:44:05;;;;;;;1.97;1.53;;;18.00;64.20;;;;;;5068770;28;20303;-47
2023/04/30 04:46:37;;;;;;;1.73;1.30;;;17.90;64.10;;;;;;5074841;28;20197;-47
2023/04/30 04:49:09;;;;;;;2.73;1.57;;;18.00;64.20;;;;;;5077625;28;20213;-47
2023/04/30 04:51:38;;;;;;;1.33;1.23;;;17.90;64.10;;;;;;5056439;28;20217;-46
2023/04/30 04:54:11;;;;;;;1.60;1.43;;;17.90;64.10;;;;;;5072388;28;20635;-46
2023/04/30 04:56:42;;;;;;;1.27;1.17;;;17.90;64.10;;;;;;5079442;28;20205;-47
2023/04/30 04:59:17;;;;;;;1.53;1.43;;;18.00;64.00;;;;;;5074448;28;20534;-48
2023/04/30 05:01:47;;;;;;;1.77;1.67;;;17.90;64.00;;;;;;5074490;28;20630;-46
2023/04/30 05:04:19;;;;;;;1.67;1.50;;;17.90;64.00;;;;;;5067990;28;20211;-46
2023/04/30 05:06:48;;;;;;;1.60;1.50;;;17.90;64.00;;;;;;5070306;28;20229;-46
2023/04/30 05:09:18;;;;;;;2.63;1.60;;;17.90;63.90;;;;;;5070492;28;20206;-46
2023/04/30 05:11:48;;;;;;;1.73;1.63;;;17.90;63.90;;;;;;5064744;28;20220;-47
2023/04/30 05:14:19;;;;;;;1.53;1.43;;;17.90;63.80;;;;;;5069694;28;20197;-47
2023/04/30 05:16:48;;;;;;;2.47;2.00;;;17.90;63.80;;;;;;5073991;28;20557;-47
2023/04/30 05:19:17;;;;;;;2.53;1.80;;;17.90;63.70;;;;;;5070072;28;20668;-47
2023/04/30 05:21:47;;;;;;;2.67;1.67;;;17.90;63.80;;;;;;5068476;28;20194;-47
2023/04/30 05:24:18;;;;;;;1.53;1.43;;;17.90;63.70;;;;;;5066923;28;20221;-47
2023/04/30 05:26:48;;;;;;;2.63;1.60;;;17.90;63.70;;;;;;5072060;28;20201;-46
2023/04/30 05:29:20;;;;;;;1.80;1.40;;;17.90;63.70;;;;;;5079377;28;20205;-46
2023/04/30 05:31:48;;;;;;;1.67;1.57;;;17.90;63.60;;;;;;5072965;28;20212;-47
2023/04/30 05:34:18;;;;;;;1.90;1.60;;;17.90;63.60;;;;;;5072787;28;20202;-47
2023/04/30 05:36:46;;;;;;;3.13;1.70;;;17.90;63.60;;;;;;5049741;28;20221;-47
2023/04/30 05:39:18;;;;;;;1.80;1.70;;;17.90;63.60;;;;;;5070830;28;20198;-47
2023/04/30 05:41:48;;;;;;;2.13;1.80;;;17.90;63.50;;;;;;5066314;28;20206;-46
2023/04/30 05:44:20;;;;;;;1.70;1.60;;;17.90;63.50;;;;;;5069844;28;20605;-46
2023/04/30 05:46:55;;;;;;;2.13;1.50;;;17.90;63.50;;;;;;5074760;28;20680;-46
2023/04/30 05:49:25;;;;;;;2.17;1.80;;;17.90;63.50;;;;;;5049178;28;20795;-46
2023/04/30 05:51:57;;;;;;;1.70;1.60;;;17.90;63.50;;;;;;5068188;28;20225;-46
2023/04/30 05:54:30;;;;;;;1.93;1.73;;;17.80;63.40;;;;;;5068882;28;20214;-46
2023/04/30 05:57:01;;;;;;;1.90;1.70;;;17.90;63.40;;;;;;5070675;28;20275;-46
2023/04/30 05:59:32;;;;;;;1.77;1.67;;;17.90;63.40;;;;;;5070534;28;20204;-46
2023/04/30 06:02:03;;;;;;;4.87;2.40;;;17.90;63.40;;;;;;5069487;28;20271;-46
2023/04/30 06:04:32;;;;;;;4.33;2.80;;;17.90;63.60;;;;;;5069782;28;20209;-46
2023/04/30 06:07:04;;;;;;;4.70;2.33;;;17.90;63.50;;;;;;5068199;28;20525;-46
2023/04/30 06:09:34;;;;;;;4.70;2.40;;;17.90;63.40;;;;;;5071045;28;20554;-49
2023/04/30 06:12:04;;;;;;;5.23;2.60;;;17.90;63.30;;;;;;5053890;28;20249;-48
2023/04/30 06:14:36;;;;;;;3.83;2.60;;;17.90;63.20;;;;;;5054046;28;20201;-46
2023/04/30 06:17:07;;;;;;;3.40;2.47;;;17.90;63.20;;;;;;5076419;28;20223;-47
2023/04/30 06:19:37;;;;;;;2.67;2.43;;;17.90;63.10;;;;;;5070941;28;20197;-48
2023/04/30 06:22:05;;;;;;;3.23;2.10;;;17.90;63.00;;;;;;5065433;28;20232;-47
2023/04/30 06:24:34;;;;;;;2.97;2.00;;;17.90;63.00;;;;;;5068415;28;20197;-47
2023/04/30 06:27:08;;;;;;;3.10;2.27;;;17.90;63.00;;;;;;5069737;28;20663;-47
2023/04/30 06:29:38;;;;;;;2.97;2.50;;;17.80;62.90;;;;;;5071008;28;20210;-47
2023/04/30 06:32:08;;;;;;;4.27;2.50;;;17.90;62.90;;;;;;5074052;28;20716;-47
2023/04/30 06:34:40;;;;;;;6.17;2.20;;;17.80;62.90;;;;;;5074352;28;20201;-47
2023/04/30 06:37:10;;;;;;;2.53;2.00;;;17.80;63.00;;;;;;5067976;28;20198;-48
2023/04/30 06:39:39;;;;;;;4.33;2.20;;;17.80;63.00;;;;;;5068245;28;20219;-48
2023/04/30 06:42:09;;;;;;;4.70;2.10;;;17.80;63.00;;;;;;5074605;28;20236;-46
2023/04/30 06:44:44;;;;;;;3.73;2.30;;;17.90;63.00;;;;;;5076835;28;20240;-47
2023/04/30 06:47:15;;;;;;;4.60;2.73;;;17.90;63.00;;;;;;5050923;28;20191;-47
2023/04/30 06:49:45;;;;;;;3.27;2.57;;;17.80;62.90;;;;;;5063668;28;20217;-47
2023/04/30 06:52:16;;;;;;;3.50;2.50;;;17.90;63.00;;;;;;5067137;28;20224;-46
2023/04/30 06:54:48;;;;;;;3.57;2.30;;;17.90;62.90;;;;;;5080361;28;20193;-46
2023/04/30 06:57:15;;;;;;;3.93;2.40;;;17.90;62.90;;;;;;5081088;28;20276;-47
2023/04/30 06:59:44;;;;;;;3.20;2.43;;;17.80;62.80;;;;;;5068148;28;20201;-46
2023/04/30 07:02:14;;;;;;;3.70;2.40;;;17.90;63.20;;;;;;5074662;28;20198;-46
2023/04/30 07:04:48;;;;;;;4.20;2.50;;;17.90;63.10;;;;;;5059508;28;20197;-48
2023/04/30 07:07:16;;;;;;;7.10;2.63;;;17.90;63.00;;;;;;5082055;28;20208;-45
2023/04/30 07:09:45;;;;;;;4.40;2.50;;;17.90;63.10;;;;;;5076694;28;20434;-47
2023/04/30 07:12:18;;;;;;;3.47;2.47;;;17.80;63.00;;;;;;5074150;28;20420;-47
2023/04/30 07:14:48;;;;;;;4.27;2.70;;;17.80;62.90;;;;;;5074451;28;20196;-48
2023/04/30 07:17:20;;;;;;;4.77;2.67;;;17.90;63.00;;;;;;5083920;28;20634;-47
2023/04/30 07:19:56;;;;;;;2.73;2.40;;;17.90;62.90;;;;;;5086366;28;20263;-47
2023/04/30 07:22:26;;;;;;;4.40;2.73;;;17.90;62.80;;;;;;5083554;28;20200;-46
2023/04/30 07:24:59;;;;;;;3.10;2.30;;;17.80;62.70;;;;;;5073963;28;20213;-46
2023/04/30 07:27:31;;;;;;;3.63;2.33;;;17.90;62.70;;;;;;5077297;28;20205;-48
2023/04/30 07:30:03;;;;;;;5.60;2.50;;;17.90;62.70;;;;;;5073982;28;20243;-46
2023/04/30 07:32:34;;;;;;;2.97;2.57;;;17.90;62.70;;;;;;5072600;28;20220;-47
2023/04/30 07:35:08;;;;;;;5.07;2.77;;;17.90;62.60;;;;;;5059210;28;20177;-47
2023/04/30 07:37:40;;;;;;;3.33;2.57;;;17.90;62.50;;;;;;5079275;28;20209;-47
2023/04/30 07:40:12;;;;;;;4.10;2.30;;;17.90;62.50;;;;;;5076513;28;20206;-47
2023/04/30 07:42:52;;;;;;;4.23;3.17;;;17.90;62.40;;;;;;5073259;28;20291;-47
2023/04/30 07:45:22;;;;;;;2.87;2.50;;;17.90;62.40;;;;;;5078976;28;20196;-47
2023/04/30 07:47:57;;;;;;;3.40;2.70;;;17.90;62.50;;;;;;5059851;28;20674;-47
2023/04/30 07:50:28;;;;;;;4.10;2.77;;;17.90;62.40;;;;;;5056877;28;20278;-48
2023/04/30 07:53:11;;;;;;;4.07;3.20;;;17.90;62.30;;;;;;5072480;28;20787;-47
2023/04/30 07:55:40;;;;;;;5.17;2.60;;;17.90;62.40;;;;;;5064969;28;20202;-47
2023/04/30 07:58:10;;;;;;;3.67;2.80;;;17.90;62.50;;;;;;5069334;28;20201;-47
2023/04/30 08:00:40;;;;;;;4.27;2.80;;;18.00;62.50;;;;;;5076982;28;20205;-47
2023/04/30 08:03:09;;;;;;;4.77;2.87;;;18.00;62.50;;;;;;5071897;28;20221;-57
2023/04/30 08:05:40;;;;;;;5.50;3.40;;;18.10;62.00;;;;;;5056583;28;20255;-48
2023/04/30 08:08:10;;;;;;;4.27;3.57;;;18.20;61.90;;;;;;5034866;28;20202;-48
2023/04/30 08:10:40;;;;;;;5.73;3.80;;;18.30;61.90;;;;;;5084353;28;20197;-47
2023/04/30 08:13:11;;;;;;;5.37;3.83;;;18.30;61.80;;;;;;5076272;28;20241;-47
2023/04/30 08:15:41;;;;;;;6.23;3.53;;;18.30;61.80;;;;;;5076939;28;20209;-46
2023/04/30 08:18:10;;;;;;;3.60;3.20;;;18.40;61.70;;;;;;5076002;28;20248;-47
2023/04/30 08:20:43;;;;;;;4.33;2.93;;;18.40;61.50;;;;;;5083420;28;20718;-47
2023/04/30 08:23:15;;;;;;;11.33;3.97;;;18.50;61.30;;;;;;5081279;28;20212;-47
2023/04/30 08:25:47;;;;;;;7.67;3.87;;;18.50;61.30;;;;;;5067235;28;20206;-47
2023/04/30 08:28:18;;;;;;;6.03;4.10;;;18.60;61.30;;;;;;5071069;28;20202;-49
2023/04/30 08:30:48;;;;;;;4.80;3.30;;;18.60;61.20;;;;;;5069991;28;20190;-47
2023/04/30 08:33:19;;;;;;;5.13;3.60;;;18.60;61.10;;;;;;5070729;28;20291;-48
2023/04/30 08:35:49;;;;;;;6.13;3.80;;;18.60;61.00;;;;;;5069981;28;20216;-48
2023/04/30 08:38:21;;;;;;;9.27;3.80;;;18.70;61.00;;;;;;5079031;28;20201;-48
2023/04/30 08:41:19;;;;;;;6.03;3.40;;;18.70;60.90;;;;;;5070453;28;20205;-48
2023/04/30 08:43:52;;;;;;;6.70;4.13;;;18.70;60.80;;;;;;5039080;28;20756;-48
2023/04/30 08:46:38;;;;;;;8.97;4.30;;;18.70;60.90;;;;;;5052600;28;20289;-47
2023/04/30 08:49:25;;;;;;;5.57;4.10;;;18.70;61.00;;;;;;5032050;28;20210;-48
2023/04/30 08:52:02;;;;;;;6.80;3.90;;;18.70;61.10;;;;;;5019728;28;20679;-46
2023/04/30 08:54:36;;;;;;;7.63;4.37;;;18.80;61.30;;;;;;5049894;28;20210;-48
2023/04/30 08:57:06;;;;;;;6.33;4.23;;;18.80;61.30;;;;;;5032233;28;20218;-47
2023/04/30 08:59:48;;;;;;;6.63;4.53;;;18.80;61.10;;;;;;5048266;28;20225;-46
2023/04/30 09:02:18;;;;;;;8.93;4.13;;;18.90;61.10;;;;;;5049961;28;20206;-46
2023/04/30 09:04:50;;;;;;;5.60;4.13;;;19.00;60.90;;;;;;5049996;28;20225;-47
2023/04/30 09:07:28;;;;;;;7.10;3.90;;;18.90;60.90;;;;;;5049056;28;20199;-48
2023/04/30 09:09:59;;;;;;;8.70;3.77;;;19.00;61.00;;;;;;5047057;28;20198;-48
2023/04/30 09:12:31;;;;;;;7.37;4.23;;;19.00;61.00;;;;;;5047136;28;20238;-47
2023/04/30 09:15:04;;;;;;;6.80;3.67;;;19.10;61.10;;;;;;5034639;28;20688;-47
2023/04/30 09:17:34;;;;;;;4.67;3.70;;;19.10;60.80;;;;;;5049211;28;20194;-47
2023/04/30 09:20:11;;;;;;;6.03;3.83;;;19.10;60.50;;;;;;5047662;28;20591;-47
2023/04/30 09:22:46;;;;;;;5.87;4.00;;;19.20;60.90;;;;;;5023840;28;20281;-47
2023/04/30 09:25:19;;;;;;;5.53;3.63;;;19.30;60.20;;;;;;5047404;28;20213;-47
2023/04/30 09:28:07;;;;;;;5.70;4.20;;;19.40;59.80;;;;;;5046195;28;20771;-47
2023/04/30 09:30:40;;;;;;;6.40;3.80;;;19.40;59.60;;;;;;5032894;28;20202;-47
2023/04/30 09:33:10;;;;;;;5.47;3.83;;;19.40;59.50;;;;;;5014509;28;20233;-48
2023/04/30 09:35:40;;;;;;;6.63;3.57;;;19.40;59.60;;;;;;5037944;28;20191;-48
2023/04/30 09:38:32;;;;;;;7.20;3.97;;;19.40;59.50;;;;;;5032342;28;20198;-49
2023/04/30 09:41:04;;;;;;;8.47;3.97;;;19.40;59.30;;;;;;5032648;28;20202;-49
2023/04/30 09:43:45;;;;;;;5.33;3.40;;;19.30;59.10;;;;;;5058812;28;20236;-49
2023/04/30 09:46:14;;;;;;;4.27;3.40;;;19.30;59.20;;;;;;5061762;28;20209;-48
2023/04/30 09:48:44;;;;;;;6.07;3.73;;;19.30;59.00;;;;;;5068686;28;20638;-47
2023/04/30 09:51:14;;;;;;;8.47;3.60;;;19.20;59.00;;;;;;5069732;28;20198;-49
2023/04/30 09:53:46;;;;;;;5.30;3.87;;;19.20;59.00;;;;;;5050960;28;20217;-48
2023/04/30 09:56:32;;;;;;;5.10;3.37;;;19.20;59.20;;;;;;5074224;28;20198;-48
2023/04/30 09:59:08;;;;;;;5.30;3.90;;;19.20;59.10;;;;;;5070513;28;20205;-48
2023/04/30 10:01:37;;;;;;;4.53;3.60;;;19.20;59.00;;;;;;5042057;28;20212;-49
2023/04/30 10:04:08;;;;;;;4.00;3.07;;;19.20;59.20;;;;;;5072942;28;20205;-47
2023/04/30 10:06:41;;;;;;;5.03;3.17;;;19.20;59.30;;;;;;5076546;28;20208;-48
2023/04/30 10:09:18;;;;;;;4.60;3.37;;;19.20;59.20;;;;;;5071604;28;20241;-49
2023/04/30 10:11:47;;;;;;;4.93;3.17;;;19.20;59.30;;;;;;5071954;28;20197;-49
2023/04/30 10:14:19;;;;;;;4.03;3.07;;;19.10;59.40;;;;;;5069681;28;20221;-48
2023/04/30 10:17:26;;;;;;;4.13;3.30;;;19.10;59.50;;;;;;5050517;28;20278;-48
2023/04/30 10:20:04;;;;;;;6.83;3.03;;;19.10;59.70;;;;;;5060794;28;20186;-48
2023/04/30 10:22:35;;;;;;;3.53;2.80;;;19.10;59.70;;;;;;5054020;28;20198;-49
2023/04/30 10:25:12;;;;;;;6.33;3.07;;;19.10;59.80;;;;;;5068639;28;20643;-47
2023/04/30 10:27:41;;;;;;;3.33;2.70;;;19.10;59.80;;;;;;5064874;28;20197;-47
2023/04/30 10:30:14;;;;;;;3.87;2.73;;;19.00;59.70;;;;;;5081735;28;20193;-48
2023/04/30 10:33:39;;;;;;;3.70;2.70;;;19.00;59.90;;;;;;5054852;28;20227;-48
2023/04/30 10:36:14;;;;;;;3.17;2.30;;;19.00;59.90;;;;;;4967637;28;20283;-48
2023/04/30 10:38:47;;;;;;;3.87;2.57;;;19.00;60.00;;;;;;5041834;28;20224;-47
2023/04/30 10:41:28;;;;;;;4.23;2.43;;;19.00;60.10;;;;;;5054402;28;20205;-48
2023/04/30 10:44:04;;;;;;;3.80;2.57;;;19.00;60.20;;;;;;5066382;28;20298;-47
2023/04/30 10:46:46;;;;;;;2.70;2.30;;;19.00;60.10;;;;;;5053570;28;20294;-48
2023/04/30 10:49:25;;;;;;;3.63;2.43;;;19.00;60.20;;;;;;5065916;28;20226;-48
2023/04/30 10:52:02;;;;;;;2.80;2.10;;;19.00;60.30;;;;;;5049228;28;20255;-48
2023/04/30 10:54:41;;;;;;;3.83;2.10;;;19.00;60.20;;;;;;5064032;28;20236;-47
2023/04/30 10:57:28;;;;;;;2.60;1.80;;;19.00;60.30;;;;;;5069893;28;20229;-48
2023/04/30 11:00:26;;;;;;;2.53;2.17;;;19.00;60.40;;;;;;5042261;28;20220;-48
2023/04/30 11:03:02;;;;;;;2.77;1.70;;;19.00;60.50;;;;;;5048379;28;20532;-48
2023/04/30 11:05:37;;;;;;;2.53;2.00;;;19.00;60.70;;;;;;5056615;28;20197;-47
2023/04/30 11:08:10;;;;;;;2.47;1.70;;;18.90;60.50;;;;;;5050170;28;20192;-47
2023/04/30 11:10:58;;;;;;;3.10;1.93;;;19.00;60.40;;;;;;5064788;28;20200;-47
2023/04/30 11:13:56;;;;;;;3.57;1.87;;;19.00;60.60;;;;;;5061566;28;20228;-47
2023/04/30 11:16:33;;;;;;;2.23;1.83;;;19.00;60.50;;;;;;5060218;28;20182;-47
2023/04/30 11:19:14;;;;;;;2.57;2.00;;;19.00;60.50;;;;;;5043970;28;20209;-47
2023/04/30 11:22:03;;;;;;;2.67;1.67;;;19.00;60.60;;;;;;5057788;28;20637;-48
2023/04/30 11:25:04;;;;;;;2.07;1.40;;;19.00;60.20;;;;;;5065110;28;20225;-48
2023/04/30 11:27:34;;;;;;;2.07;1.80;;;19.00;60.60;;;;;;5056419;28;20194;-48
2023/04/30 11:30:14;;;;;;;1.80;1.70;;;19.00;61.00;;;;;;5037511;28;20557;-47
2023/04/30 11:32:46;;;;;;;1.67;1.50;;;19.00;60.70;;;;;;5051191;28;20194;-48
2023/04/30 11:35:21;;;;;;;1.70;1.60;;;19.00;60.50;;;;;;5051774;28;20631;-48
2023/04/30 11:38:07;;;;;;;3.53;1.50;;;19.10;60.50;;;;;;5063566;28;20221;-48
2023/04/30 11:40:38;;;;;;;2.70;1.67;;;19.10;60.40;;;;;;5065425;28;20193;-48
2023/04/30 11:43:19;;;;;;;1.73;1.43;;;19.10;60.40;;;;;;5083719;28;20246;-47
2023/04/30 11:46:08;;;;;;;1.60;1.50;;;19.10;60.60;;;;;;5077131;28;20343;-48
2023/04/30 11:48:43;;;;;;;2.33;1.63;;;19.10;60.50;;;;;;5066753;28;20205;-48
2023/04/30 11:51:20;;;;;;;1.90;1.63;;;19.10;60.10;;;;;;5060936;28;20201;-48
2023/04/30 11:53:56;;;;;;;1.97;1.67;;;19.10;61.00;;;;;;5087143;28;20205;-48
2023/04/30 11:56:26;;;;;;;2.47;1.80;;;19.10;60.90;;;;;;5071501;28;20204;-48
2023/04/30 11:58:58;;;;;;;1.63;1.50;;;19.10;60.50;;;;;;5075501;28;20212;-48
2023/04/30 12:01:28;;;;;;;1.47;1.37;;;19.20;60.30;;;;;;5056715;28;20221;-48
2023/04/30 12:03:59;;;;;;;2.33;1.30;;;19.20;60.10;;;;;;5073765;28;20406;-48
2023/04/30 12:06:31;;;;;;;2.07;1.30;;;19.20;60.90;;;;;;5071484;28;20204;-47
2023/04/30 12:09:06;;;;;;;1.63;1.47;;;19.20;61.00;;;;;;5054985;28;20197;-47
2023/04/30 12:11:48;;;;;;;1.53;1.43;;;19.20;60.60;;;;;;5050996;28;20259;-47
2023/04/30 12:14:23;;;;;;;1.83;1.40;;;19.20;60.90;;;;;;5071961;28;20248;-47
2023/04/30 12:16:54;;;;;;;1.90;1.53;;;19.20;61.10;;;;;;5084719;28;20529;-47
2023/04/30 12:19:26;;;;;;;1.40;1.20;;;19.20;61.10;;;;;;5047366;28;20194;-47
2023/04/30 12:21:58;;;;;;;2.63;1.40;;;19.30;61.10;;;;;;5067708;28;21074;-48
2023/04/30 12:24:29;;;;;;;2.47;1.43;;;19.30;61.30;;;;;;5078425;28;20212;-48
2023/04/30 12:27:01;;;;;;;1.27;1.17;;;19.30;61.30;;;;;;5056010;28;20208;-47
2023/04/30 12:29:33;;;;;;;2.33;1.53;;;19.30;61.10;;;;;;5082633;28;20208;-47
2023/04/30 12:32:05;;;;;;;1.20;1.10;;;19.30;60.80;;;;;;5065703;28;20660;-49
2023/04/30 12:34:37;;;;;;;1.30;1.20;;;19.30;61.10;;;;;;5066414;28;20209;-49
2023/04/30 12:37:08;;;;;;;1.87;1.47;;;19.30;60.80;;;;;;5081163;28;20663;-48
2023/04/30 12:39:40;;;;;;;1.17;1.03;;;19.30;61.20;;;;;;5083801;28;20267;-47
2023/04/30 12:42:10;;;;;;;1.27;1.17;;;19.30;61.30;;;;;;5070719;28;20273;-48
2023/04/30 12:44:44;;;;;;;1.30;1.20;;;19.40;61.10;;;;;;5089626;28;20236;-47
2023/04/30 12:47:15;;;;;;;1.30;1.20;;;19.30;61.10;;;;;;5061322;28;20524;-47
2023/04/30 12:49:45;;;;;;;1.93;1.10;;;19.40;61.20;;;;;;5052670;28;20214;-47
2023/04/30 12:52:23;;;;;;;1.23;1.10;;;19.40;60.90;;;;;;5083134;28;20213;-47
2023/04/30 12:54:54;;;;;;;2.00;1.10;;;19.40;61.00;;;;;;5086206;28;20216;-47
2023/04/30 12:57:23;;;;;;;1.40;1.20;;;19.40;60.50;;;;;;5075847;28;20822;-48
2023/04/30 12:59:58;;;;;;;1.60;1.50;;;19.40;60.20;;;;;;5069133;28;20266;-47
2023/04/30 13:02:28;;;;;;;1.50;1.20;;;19.40;60.70;;;;;;5056522;28;20659;-48
2023/04/30 13:04:58;;;;;;;1.33;1.23;;;19.40;60.80;;;;;;5073200;28;20614;-48
2023/04/30 13:07:39;;;;;;;1.40;1.30;;;19.50;60.70;;;;;;5070663;28;20269;-48
2023/04/30 13:10:08;;;;;;;1.67;1.40;;;19.50;60.30;;;;;;5087511;28;20578;-48
2023/04/30 13:12:43;;;;;;;1.23;1.13;;;19.50;60.30;;;;;;5075677;28;20807;-48
2023/04/30 13:15:14;;;;;;;1.60;1.23;;;19.50;60.00;;;;;;5079345;28;20676;-48
2023/04/30 13:17:46;;;;;;;1.37;1.20;;;19.50;60.70;;;;;;5057199;28;20606;-47
2023/04/30 13:20:17;;;;;;;1.47;1.20;;;19.50;60.70;;;;;;5084007;28;20192;-48
2023/04/30 13:22:46;;;;;;;1.33;1.23;;;19.50;60.90;;;;;;5063078;28;20186;-48